»·PEaware :: AWE722 KSAN-KLAX

AWE722 :: KSAN-KLAX

FLIGHT INFORMATION

Flight Status: Arrived
Operator:
US Airways
More flights by this operator :: More flights under this callsign
Pilot: Mike S. (2156)
Aircraft: BOEING 737-400
(B734)
More flights by this aircraft type
Origin: KSAN San Diego Intl-Lindbergh
United States
Destination: KLAX Los Angeles Intl
United States
More flights between these airports :: More routes between these airports
Route: +PEBLE4 SLI
File this flight plan on PilotEdge
Remarks: SEL / MSCS Boeing737
Altitude:
(Current/Filed)
10,000ft
Speed:
(Current/Filed)
380kts
Departed: 16-Nov-14 11:39 AM
Arrived: 16-Nov-14 12:03 PM
Distance/Time
Traveled:
95nm/0:24
Distance/Time
To Go:
Arrived

Flight Plot

Page will automatically refresh every two minutes.


Map Options




Map Legend


Flown Route
Filed Route
Departure Airport
Arrival Airport
Navaid (VOR, NDB)
Fix

Horizontal Profiles

Position Reports

Time Latitude Longitude Heading Altitude Ground
Speed
16-Nov-14 11:09 32.731520 -117.190483 331 24ft 0kts
16-Nov-14 11:10 32.731520 -117.190483 331 24ft 0kts
16-Nov-14 11:11 32.731520 -117.190483 331 24ft 0kts
16-Nov-14 11:12 32.731520 -117.190483 331 24ft 0kts
16-Nov-14 11:13 32.731520 -117.190483 331 24ft 0kts
16-Nov-14 11:14 32.731520 -117.190483 331 24ft 0kts
16-Nov-14 11:15 32.731520 -117.190483 331 24ft 0kts
16-Nov-14 11:16 32.731520 -117.190483 331 24ft 0kts
16-Nov-14 11:17 32.731520 -117.190483 331 24ft 0kts
16-Nov-14 11:18 32.731613 -117.190541 333 24ft 0kts
16-Nov-14 11:19 32.731613 -117.190541 333 24ft 0kts
16-Nov-14 11:20 32.731613 -117.190541 333 24ft 0kts
16-Nov-14 11:21 32.731613 -117.190541 333 24ft 0kts
16-Nov-14 11:22 32.731613 -117.190541 333 24ft 0kts
16-Nov-14 11:23 32.731613 -117.190541 333 24ft 0kts
16-Nov-14 11:24 32.731613 -117.190541 333 24ft 0kts
16-Nov-14 11:25 32.731613 -117.190541 333 24ft 0kts
16-Nov-14 11:26 32.731613 -117.190541 333 24ft 0kts
16-Nov-14 11:27 32.731613 -117.190541 333 24ft 0kts
16-Nov-14 11:28 32.731613 -117.190541 333 24ft 0kts
16-Nov-14 11:29 32.731613 -117.190541 333 24ft 0kts
16-Nov-14 11:30 32.731613 -117.190541 333 24ft 0kts
16-Nov-14 11:31 32.731613 -117.190541 333 24ft 0kts
16-Nov-14 11:32 32.731613 -117.190541 333 24ft 0kts
16-Nov-14 11:33 32.732368 -117.189044 105 24ft 17kts
16-Nov-14 11:34 32.730599 -117.181709 105 24ft 19kts
16-Nov-14 11:35 32.729601 -117.177584 105 24ft 0kts
16-Nov-14 11:36 32.729727 -117.175924 55 24ft 15kts
16-Nov-14 11:37 32.735707 -117.199106 285 235ft 182kts
16-Nov-14 11:38 32.759810 -117.257975 302 3621ft 216kts
16-Nov-14 11:39 32.792504 -117.328565 302 6235ft 265kts
16-Nov-14 11:40 32.829139 -117.407338 302 9283ft 277kts
16-Nov-14 11:41 32.875649 -117.479583 326 9986ft 292kts
16-Nov-14 11:42 32.948497 -117.539329 327 9982ft 341kts
16-Nov-14 11:43 33.029142 -117.604778 327 9988ft 353kts
16-Nov-14 11:44 33.090426 -117.694375 305 9993ft 359kts
16-Nov-14 11:45 33.150833 -117.789664 310 9968ft 357kts
16-Nov-14 11:46 33.227344 -117.858603 343 9971ft 351kts
16-Nov-14 11:47 33.321162 -117.892076 344 9978ft 351kts
16-Nov-14 11:48 33.411686 -117.923848 344 9359ft 324kts
16-Nov-14 11:49 33.494050 -117.952773 345 8531ft 295kts
16-Nov-14 11:50 33.569862 -117.979403 345 7708ft 265kts
16-Nov-14 11:51 33.637927 -118.004170 345 7019ft 242kts
16-Nov-14 11:52 33.701431 -118.023535 346 6349ft 245kts
16-Nov-14 11:53 33.769479 -118.044589 346 5052ft 254kts
16-Nov-14 11:54 33.836458 -118.065872 346 4983ft 242kts
16-Nov-14 11:55 33.896737 -118.085261 346 4987ft 219kts
16-Nov-14 11:56 33.955168 -118.104546 338 4651ft 227kts
16-Nov-14 11:57 33.966265 -118.174259 251 2719ft 250kts
16-Nov-14 11:58 33.950733 -118.251253 265 2028ft 215kts
16-Nov-14 11:59 33.944132 -118.317029 262 1243ft 175kts
16-Nov-14 12:00 33.938622 -118.370002 262 371ft 146kts
16-Nov-14 12:01 33.935378 -118.404469 279 135ft 33kts
16-Nov-14 12:02 33.935973 -118.408393 286 135ft 14kts
16-Nov-14 12:03 33.938754 -118.408236 80 135ft 9kts
16-Nov-14 12:04 33.939644 -118.404934 42 135ft 0kts

Navigation Log

Ident Type
Flight plan parsing failed, navigation log unavailable